Nearby METAR Reports

 

CYOW - Ottawa Intl, Ontario, Canada
Distance from station: N 33km
Updated: Sat, 20-Apr-2019 3:00pm EDT
Light rain, Showers, Overcast
Light rain, Showers, Overcast
 Wind from NE
Wind: NE 26 km/h, Gust: 43 km/h
Temperature: 6°C
Wind Chill: 2°C
Dew Point: 5°C
Humidity: 93%
Barometer: 29.79 inHg , 1008.8 hPa
Summary: Light rain, Showers
Clouds: Overcast
Visibility: 24 km
Cloud details: Overcast 305 m
2019/04/20 19:00 CYOW 201900Z 05014G23KT 15SM -SHRA OVC010 06/05 A2979 RMK SC8 PRESFR SLP093
CYGK - Kingston Arpt, Ontario, Canada
Distance from station: SW 117km
Updated: Sat, 20-Apr-2019 3:00pm EDT
Overcast
Overcast
 Wind from NE
Wind: NE 33 km/h, Gust: 50 km/h
Temperature: 8°C
Wind Chill: 3°C
Dew Point: 7°C
Humidity: 93%
Barometer: 29.69 inHg , 1005.4 hPa
Clouds: Overcast
Visibility: 24 km
Cloud details: Overcast 305 m
2019/04/20 19:00 CYGK 201900Z 05018G27KT 15SM OVC010 08/07 A2969 RMK SC8 SLP057
KMSS - Massena, New York, USA
Distance from station: E 62km
Updated: Sat, 20-Apr-2019 3:03pm EDT
Overcast
Overcast
 Wind from ENE
Wind: ENE 31 km/h, Gust: 46 km/h
Temperature: 7°C
Wind Chill: 3°C
Dew Point: 5°C
Humidity: 87%
Barometer: 29.79 inHg , 1008.8 hPa
Clouds: Overcast
Visibility: 14 km
Cloud details: Overcast 183 m
2019/04/20 19:03 KMSS 201903Z AUTO 06017G25KT 9SM OVC006 07/05 A2979 RMK AO2 RAE03 P0000 T00670050